Time;durP1;ratioP1;P1;durP2;ratioP2;P2;SDS_P1;SDS_P2;PMS_P1;PMS_P2;Temp;Humidity;BMP_temperature;BMP_pressure;BME280_temperature;BME280_humidity;BME280_pressure;Samples;Min_cycle;Max_cycle;Signal;HPM_P1;HPM_P2
2023/06/03 00:02:01;;;;;;;5.37;1.80;;;;;;;;;;5069719;28;20122;-60
2023/06/03 00:04:30;;;;;;;4.90;2.00;;;;;;;;;;5069439;28;20040;-60
2023/06/03 00:06:56;;;;;;;3.93;1.50;;;;;;;;;;5069860;28;20498;-60
2023/06/03 00:09:23;;;;;;;4.40;1.60;;;;;;;;;;5069441;28;20044;-60
2023/06/03 00:11:49;;;;;;;2.60;1.20;;;;;;;;;;5069364;28;20083;-60
2023/06/03 00:14:15;;;;;;;2.97;1.30;;;;;;;;;;5069554;28;20424;-60
2023/06/03 00:16:45;;;;;;;4.63;1.50;;;;;;;;;;5068989;28;20121;-60
2023/06/03 00:19:14;;;;;;;6.03;2.07;;;;;;;;;;5069463;28;20049;-60
2023/06/03 00:21:40;;;;;;;3.20;1.53;;;;;;;;;;5069641;28;20052;-60
2023/06/03 00:24:06;;;;;;;3.47;1.47;;;;;;;;;;5069273;28;20056;-60
2023/06/03 00:26:32;;;;;;;2.97;1.53;;;;;;;;;;5069158;28;20229;-60
2023/06/03 00:28:58;;;;;;;3.30;1.50;;;;;;;;;;5069312;28;20067;-60
2023/06/03 00:31:24;;;;;;;3.47;1.30;;;;;;;;;;5068600;28;20037;-60
2023/06/03 00:33:51;;;;;;;3.83;1.43;;;;;;;;;;5069021;28;20144;-60
2023/06/03 00:36:17;;;;;;;3.63;1.60;;;;;;;;;;5069153;28;20094;-60
2023/06/03 00:38:43;;;;;;;3.70;1.20;;;;;;;;;;5068504;28;20044;-60
2023/06/03 00:41:09;;;;;;;5.60;1.30;;;;;;;;;;5068811;28;20110;-60
2023/06/03 00:43:35;;;;;;;3.93;1.30;;;;;;;;;;5068667;28;20442;-60
2023/06/03 00:46:01;;;;;;;2.77;1.50;;;;;;;;;;5068822;28;20044;-60
2023/06/03 00:48:27;;;;;;;3.27;1.27;;;;;;;;;;5068625;28;20465;-60
2023/06/03 00:50:53;;;;;;;4.67;1.43;;;;;;;;;;5068837;28;20125;-60
2023/06/03 00:53:19;;;;;;;2.70;1.27;;;;;;;;;;5068781;28;20117;-60
2023/06/03 00:55:45;;;;;;;3.73;1.63;;;;;;;;;;5068689;28;20074;-60
2023/06/03 00:58:11;;;;;;;3.20;1.10;;;;;;;;;;5068893;28;20118;-60
2023/06/03 01:00:38;;;;;;;2.90;1.30;;;;;;;;;;5068588;28;20040;-60
2023/06/03 01:03:04;;;;;;;4.00;1.33;;;;;;;;;;5068846;28;20044;-60
2023/06/03 01:05:30;;;;;;;2.60;1.13;;;;;;;;;;5068550;28;20094;-60
2023/06/03 01:07:56;;;;;;;4.37;1.43;;;;;;;;;;5068848;28;20037;-60
2023/06/03 01:10:35;;;;;;;4.40;1.20;;;;;;;;;;5068864;28;20059;-60
2023/06/03 01:13:07;;;;;;;3.70;1.13;;;;;;;;;;5067804;28;20040;-60
2023/06/03 01:15:35;;;;;;;2.22;1.00;;;;;;;;;;5068657;28;20506;-60
2023/06/03 01:18:05;;;;;;;4.20;0.93;;;;;;;;;;5068370;28;20040;-60
2023/06/03 01:20:32;;;;;;;7.93;1.43;;;;;;;;;;5067667;28;20090;-60
2023/06/03 01:23:11;;;;;;;6.40;1.70;;;;;;;;;;5068709;28;20048;-60
2023/06/03 01:25:40;;;;;;;3.27;1.10;;;;;;;;;;5068266;28;20048;-60
2023/06/03 01:28:06;;;;;;;8.80;1.07;;;;;;;;;;5068531;28;20496;-60
2023/06/03 01:30:32;;;;;;;4.27;1.10;;;;;;;;;;5068536;28;20542;-60
2023/06/03 01:32:59;;;;;;;2.07;1.03;;;;;;;;;;5067837;28;20053;-60
2023/06/03 01:35:25;;;;;;;2.47;1.20;;;;;;;;;;5068443;28;20044;-60
2023/06/03 01:37:52;;;;;;;2.97;1.30;;;;;;;;;;5068666;28;20159;-60
2023/06/03 01:40:18;;;;;;;4.03;1.50;;;;;;;;;;5067419;28;20090;-60
2023/06/03 01:42:44;;;;;;;3.50;0.97;;;;;;;;;;5066660;28;20413;-60
2023/06/03 01:45:10;;;;;;;4.03;1.23;;;;;;;;;;5067608;28;20117;-60
2023/06/03 01:47:36;;;;;;;1.93;0.80;;;;;;;;;;5065969;28;20089;-60
2023/06/03 01:50:03;;;;;;;2.50;1.13;;;;;;;;;;5066793;28;20468;-60
2023/06/03 01:52:29;;;;;;;4.50;1.90;;;;;;;;;;5065875;28;20048;-60
2023/06/03 01:54:55;;;;;;;4.17;2.23;;;;;;;;;;5068983;28;20452;-60
2023/06/03 01:57:21;;;;;;;4.03;1.30;;;;;;;;;;5054714;28;20079;-60
2023/06/03 01:59:47;;;;;;;4.83;1.33;;;;;;;;;;5071317;28;21116;-60
2023/06/03 02:02:13;;;;;;;4.60;1.00;;;;;;;;;;5070471;28;20036;-60
2023/06/03 02:04:39;;;;;;;2.97;1.57;;;;;;;;;;5061899;28;20392;-60
2023/06/03 02:07:06;;;;;;;2.27;0.90;;;;;;;;;;5063793;28;20044;-60
2023/06/03 02:09:32;;;;;;;3.20;1.10;;;;;;;;;;5071729;28;20099;-60
2023/06/03 02:11:59;;;;;;;5.37;1.40;;;;;;;;;;5070735;28;20430;-60
2023/06/03 02:14:26;;;;;;;3.63;1.10;;;;;;;;;;5070310;28;20056;-60
2023/06/03 02:16:52;;;;;;;3.80;1.20;;;;;;;;;;5071063;28;20102;-60
2023/06/03 02:19:19;;;;;;;3.47;1.17;;;;;;;;;;5070909;28;20040;-60
2023/06/03 02:21:46;;;;;;;2.30;1.00;;;;;;;;;;5069760;28;20473;-59
2023/06/03 02:24:14;;;;;;;5.67;1.40;;;;;;;;;;5052846;28;20044;-60
2023/06/03 02:26:49;;;;;;;4.73;1.10;;;;;;;;;;5070789;28;20044;-60
2023/06/03 02:29:16;;;;;;;6.50;1.30;;;;;;;;;;5070521;28;20044;-60
2023/06/03 02:31:42;;;;;;;2.70;1.23;;;;;;;;;;5069222;28;20044;-60
2023/06/03 02:34:08;;;;;;;1.77;0.87;;;;;;;;;;5071469;28;20053;-60
2023/06/03 02:36:35;;;;;;;3.03;1.40;;;;;;;;;;5070872;28;20048;-60
2023/06/03 02:39:01;;;;;;;4.87;1.47;;;;;;;;;;5069236;28;20060;-60
2023/06/03 02:41:27;;;;;;;4.40;1.17;;;;;;;;;;5070961;28;20047;-60
2023/06/03 02:43:53;;;;;;;4.27;1.20;;;;;;;;;;5071407;28;20044;-60
2023/06/03 02:46:19;;;;;;;3.60;1.27;;;;;;;;;;5053203;28;20040;-60
2023/06/03 02:48:45;;;;;;;4.47;1.10;;;;;;;;;;5071129;28;20048;-60
2023/06/03 02:51:11;;;;;;;4.40;1.30;;;;;;;;;;5071380;28;20493;-60
2023/06/03 02:53:37;;;;;;;2.47;1.10;;;;;;;;;;5070537;28;20055;-60
2023/06/03 02:56:03;;;;;;;4.00;1.30;;;;;;;;;;5071088;28;20084;-60
2023/06/03 02:58:29;;;;;;;5.33;1.80;;;;;;;;;;5058016;28;20106;-60
2023/06/03 03:00:56;;;;;;;3.90;1.50;;;;;;;;;;5066899;28;20059;-60
2023/06/03 03:03:22;;;;;;;4.30;1.20;;;;;;;;;;5053621;28;20051;-60
2023/06/03 03:05:49;;;;;;;6.33;2.43;;;;;;;;;;5070088;28;20040;-60
2023/06/03 03:08:15;;;;;;;2.80;1.13;;;;;;;;;;5070892;28;20083;-60
2023/06/03 03:10:41;;;;;;;5.13;1.57;;;;;;;;;;5070828;28;20082;-60
2023/06/03 03:13:07;;;;;;;3.80;1.40;;;;;;;;;;5070237;28;20048;-60
2023/06/03 03:15:33;;;;;;;4.43;1.57;;;;;;;;;;5070724;28;20102;-60
2023/06/03 03:17:59;;;;;;;3.67;1.43;;;;;;;;;;5070610;28;20473;-60
2023/06/03 03:20:25;;;;;;;2.17;1.30;;;;;;;;;;5070356;28;20075;-60
2023/06/03 03:22:51;;;;;;;4.80;1.20;;;;;;;;;;5070598;28;20098;-60
2023/06/03 03:25:17;;;;;;;3.63;1.63;;;;;;;;;;5070547;28;20414;-60
2023/06/03 03:27:43;;;;;;;3.23;1.33;;;;;;;;;;5070248;28;20055;-60
2023/06/03 03:30:10;;;;;;;2.80;1.60;;;;;;;;;;5070213;28;20044;-60
2023/06/03 03:32:36;;;;;;;6.07;1.60;;;;;;;;;;5070020;28;20052;-60
2023/06/03 03:35:06;;;;;;;3.93;1.37;;;;;;;;;;5052107;28;20469;-60
2023/06/03 03:37:32;;;;;;;5.37;1.43;;;;;;;;;;5070047;28;20090;-60
2023/06/03 03:39:58;;;;;;;4.10;1.30;;;;;;;;;;5061778;28;20068;-60
2023/06/03 03:42:24;;;;;;;4.20;1.50;;;;;;;;;;5057407;28;20490;-60
2023/06/03 03:44:50;;;;;;;2.40;1.20;;;;;;;;;;5064054;28;20414;-60
2023/06/03 03:47:23;;;;;;;2.40;1.50;;;;;;;;;;5068418;28;20044;-60
2023/06/03 03:49:49;;;;;;;;;;;;;;;;;;5067542;28;20036;-59
2023/06/03 03:52:18;;;;;;;6.03;1.30;;;;;;;;;;5069322;28;20370;-60
2023/06/03 03:54:44;;;;;;;4.70;1.67;;;;;;;;;;5069697;28;20044;-60
2023/06/03 03:57:13;;;;;;;3.03;1.40;;;;;;;;;;5069983;28;20052;-60
2023/06/03 03:59:39;;;;;;;4.57;1.50;;;;;;;;;;5069374;28;20045;-60
2023/06/03 04:02:05;;;;;;;5.80;1.50;;;;;;;;;;5069242;28;20162;-60
2023/06/03 04:04:44;;;;;;;3.13;1.43;;;;;;;;;;5069011;28;20052;-60
2023/06/03 04:07:14;;;;;;;5.23;1.50;;;;;;;;;;5069272;28;20040;-60
2023/06/03 04:09:41;;;;;;;5.53;1.87;;;;;;;;;;5069546;28;20395;-60
2023/06/03 04:12:18;;;;;;;3.37;1.30;;;;;;;;;;5069444;28;20113;-60
2023/06/03 04:14:50;;;;;;;4.50;1.53;;;;;;;;;;5068821;28;20106;-60
2023/06/03 04:17:20;;;;;;;2.67;1.33;;;;;;;;;;5068646;28;20045;-60
2023/06/03 04:19:47;;;;;;;6.03;1.40;;;;;;;;;;5068985;28;20136;-60
2023/06/03 04:22:17;;;;;;;5.33;1.53;;;;;;;;;;5069181;28;20048;-60
2023/06/03 04:24:43;;;;;;;6.00;1.70;;;;;;;;;;5060365;28;20503;-60
2023/06/03 04:27:09;;;;;;;5.30;1.70;;;;;;;;;;5069023;28;20075;-60
2023/06/03 04:29:35;;;;;;;4.93;1.43;;;;;;;;;;5068921;28;20110;-60
2023/06/03 04:32:01;;;;;;;3.43;1.60;;;;;;;;;;5068254;28;20062;-60
2023/06/03 04:34:28;;;;;;;2.20;1.20;;;;;;;;;;5067809;28;20052;-60
2023/06/03 04:36:54;;;;;;;4.10;1.40;;;;;;;;;;5068345;28;20346;-60
2023/06/03 04:39:20;;;;;;;6.03;1.37;;;;;;;;;;5068930;28;20055;-60
2023/06/03 04:41:46;;;;;;;2.80;1.40;;;;;;;;;;5068606;28;20040;-60
2023/06/03 04:44:13;;;;;;;3.00;1.37;;;;;;;;;;5068901;28;20049;-60
2023/06/03 04:46:40;;;;;;;3.47;1.50;;;;;;;;;;5068758;28;20053;-60
2023/06/03 04:49:08;;;;;;;4.40;2.00;;;;;;;;;;5067228;28;20048;-60
2023/06/03 04:51:34;;;;;;;4.80;1.53;;;;;;;;;;5065780;28;20509;-60
2023/06/03 04:54:00;;;;;;;5.77;1.23;;;;;;;;;;5067417;28;20105;-60
2023/06/03 04:56:29;;;;;;;2.67;1.50;;;;;;;;;;5068038;28;20041;-59
2023/06/03 04:59:00;;;;;;;3.53;1.50;;;;;;;;;;5068207;28;20056;-59
2023/06/03 05:01:26;;;;;;;3.07;1.47;;;;;;;;;;5068284;28;20044;-59
2023/06/03 05:03:55;;;;;;;5.43;1.53;;;;;;;;;;5068032;28;20036;-60
2023/06/03 05:06:21;;;;;;;4.50;1.60;;;;;;;;;;5067654;28;20534;-59
2023/06/03 05:08:48;;;;;;;3.17;1.27;;;;;;;;;;5068251;28;20044;-60
2023/06/03 05:11:15;;;;;;;5.20;1.30;;;;;;;;;;5066808;28;20435;-59
2023/06/03 05:13:41;;;;;;;4.53;1.40;;;;;;;;;;5067811;28;20048;-60
2023/06/03 05:16:07;;;;;;;2.87;1.30;;;;;;;;;;5066191;28;20055;-59
2023/06/03 05:18:35;;;;;;;4.50;1.23;;;;;;;;;;5063836;28;20044;-60
2023/06/03 05:21:02;;;;;;;3.57;1.27;;;;;;;;;;5066749;28;20115;-60
2023/06/03 05:23:28;;;;;;;3.33;1.57;;;;;;;;;;5067255;28;20056;-59
2023/06/03 05:25:54;;;;;;;4.77;1.20;;;;;;;;;;5066903;28;20379;-59
2023/06/03 05:28:20;;;;;;;4.57;1.20;;;;;;;;;;5066831;28;20134;-59
2023/06/03 05:30:46;;;;;;;4.40;1.60;;;;;;;;;;5066142;28;20115;-59
2023/06/03 05:33:28;;;;;;;3.27;1.20;;;;;;;;;;5064890;28;20138;-60
2023/06/03 05:35:54;;;;;;;1.73;0.97;;;;;;;;;;5063749;28;20045;-60
2023/06/03 05:38:20;;;;;;;2.97;1.37;;;;;;;;;;5067735;28;20068;-59
2023/06/03 05:40:50;;;;;;;4.33;1.80;;;;;;;;;;5067303;28;20502;-60
2023/06/03 05:43:16;;;;;;;6.37;1.53;;;;;;;;;;5067996;28;20464;-60
2023/06/03 05:45:42;;;;;;;2.77;1.23;;;;;;;;;;5067476;28;20040;-60
2023/06/03 05:48:08;;;;;;;2.70;0.93;;;;;;;;;;5049628;28;20052;-60
2023/06/03 05:50:36;;;;;;;2.17;1.00;;;;;;;;;;5049796;28;20076;-60
2023/06/03 05:53:03;;;;;;;2.83;1.10;;;;;;;;;;5067543;28;20593;-60
2023/06/03 05:55:29;;;;;;;3.90;1.07;;;;;;;;;;5066894;28;20562;-60
2023/06/03 05:57:56;;;;;;;4.50;0.97;;;;;;;;;;5067357;28;20455;-60
2023/06/03 06:00:22;;;;;;;3.33;1.47;;;;;;;;;;5067573;28;20047;-59
2023/06/03 06:02:48;;;;;;;5.23;1.77;;;;;;;;;;5067543;28;20131;-60
2023/06/03 06:05:14;;;;;;;2.63;1.10;;;;;;;;;;5067037;28;20476;-60
2023/06/03 06:07:41;;;;;;;4.83;1.10;;;;;;;;;;5067402;28;20071;-60
2023/06/03 06:10:07;;;;;;;1.63;0.90;;;;;;;;;;5067347;28;20435;-60
2023/06/03 06:12:33;;;;;;;5.03;1.43;;;;;;;;;;5067240;28;20067;-60
2023/06/03 06:14:59;;;;;;;2.83;0.97;;;;;;;;;;5066770;28;20453;-60
2023/06/03 06:17:25;;;;;;;7.13;1.60;;;;;;;;;;5067523;28;20045;-60
2023/06/03 06:19:51;;;;;;;4.23;1.20;;;;;;;;;;5067291;28;20522;-60
2023/06/03 06:22:17;;;;;;;3.23;1.20;;;;;;;;;;5067699;28;20239;-60
2023/06/03 06:24:43;;;;;;;2.23;0.93;;;;;;;;;;5067298;28;20135;-60
2023/06/03 06:27:10;;;;;;;4.70;1.20;;;;;;;;;;5067039;28;20489;-60
2023/06/03 06:29:36;;;;;;;3.60;0.80;;;;;;;;;;5067346;28;20051;-60
2023/06/03 06:32:03;;;;;;;2.17;0.97;;;;;;;;;;5066504;28;20544;-60
2023/06/03 06:34:31;;;;;;;4.30;1.00;;;;;;;;;;5067173;28;20374;-60
2023/06/03 06:36:58;;;;;;;1.77;0.87;;;;;;;;;;5067237;28;20045;-60
2023/06/03 06:39:33;;;;;;;3.97;0.90;;;;;;;;;;5067069;28;20068;-60
2023/06/03 06:42:21;;;;;;;3.83;1.10;;;;;;;;;;5070345;28;20045;-60
2023/06/03 06:44:48;;;;;;;2.53;1.10;;;;;;;;;;5070617;28;20048;-60
2023/06/03 06:47:20;;;;;;;4.03;1.00;;;;;;;;;;5070944;28;20124;-60
2023/06/03 06:49:47;;;;;;;2.72;1.00;;;;;;;;;;5070663;28;20044;-60
2023/06/03 06:52:14;;;;;;;4.57;1.20;;;;;;;;;;5069919;28;20510;-60
2023/06/03 06:54:41;;;;;;;2.97;0.90;;;;;;;;;;5070501;28;20045;-60
2023/06/03 06:57:07;;;;;;;3.67;1.00;;;;;;;;;;5070501;28;20660;-60
2023/06/03 06:59:33;;;;;;;1.83;0.83;;;;;;;;;;5070676;28;20040;-60
2023/06/03 07:01:59;;;;;;;1.97;0.90;;;;;;;;;;5070256;28;20517;-60
2023/06/03 07:04:25;;;;;;;4.17;1.10;;;;;;;;;;5069875;28;20090;-60
2023/06/03 07:06:51;;;;;;;5.57;1.20;;;;;;;;;;5070540;28;20041;-60
2023/06/03 07:09:18;;;;;;;3.10;1.07;;;;;;;;;;5070336;28;20401;-60
2023/06/03 07:11:44;;;;;;;2.30;0.87;;;;;;;;;;5070198;28;20053;-60
2023/06/03 07:14:10;;;;;;;4.00;1.10;;;;;;;;;;5070388;28;20051;-60
2023/06/03 07:16:36;;;;;;;5.60;1.20;;;;;;;;;;5070389;28;20041;-60
2023/06/03 07:19:04;;;;;;;4.50;1.53;;;;;;;;;;5069555;28;20044;-60
2023/06/03 07:21:31;;;;;;;4.90;0.90;;;;;;;;;;5070144;28;20048;-60
2023/06/03 07:23:57;;;;;;;2.50;1.10;;;;;;;;;;5069885;28;20047;-59
2023/06/03 07:26:26;;;;;;;2.23;0.80;;;;;;;;;;5070125;28;20037;-60
2023/06/03 07:28:52;;;;;;;5.00;1.43;;;;;;;;;;5069422;28;20478;-60
2023/06/03 07:31:18;;;;;;;2.97;1.13;;;;;;;;;;5069980;28;20048;-60
2023/06/03 07:33:54;;;;;;;3.87;0.77;;;;;;;;;;5069628;28;20063;-60
2023/06/03 07:36:21;;;;;;;3.00;0.90;;;;;;;;;;5069482;28;20052;-60
2023/06/03 07:38:57;;;;;;;6.30;0.90;;;;;;;;;;5069691;28;20040;-60
2023/06/03 07:41:44;;;;;;;4.23;1.00;;;;;;;;;;5069704;28;20045;-60
2023/06/03 07:44:11;;;;;;;3.23;0.90;;;;;;;;;;5069612;28;20087;-60
2023/06/03 07:46:38;;;;;;;4.10;1.10;;;;;;;;;;5069390;28;20074;-60
2023/06/03 07:49:04;;;;;;;6.57;1.27;;;;;;;;;;5068905;28;20105;-60
2023/06/03 07:51:30;;;;;;;3.80;0.87;;;;;;;;;;5069581;28;20509;-60
2023/06/03 07:53:56;;;;;;;4.83;1.10;;;;;;;;;;5069230;28;20113;-60
2023/06/03 07:56:22;;;;;;;2.93;1.10;;;;;;;;;;5068884;28;20049;-60
2023/06/03 07:58:48;;;;;;;2.80;0.90;;;;;;;;;;5069028;28;20102;-60
2023/06/03 08:01:16;;;;;;;4.43;0.97;;;;;;;;;;5069455;28;20109;-60
2023/06/03 08:03:43;;;;;;;3.37;1.27;;;;;;;;;;5069754;28;20040;-60
2023/06/03 08:06:09;;;;;;;2.40;0.80;;;;;;;;;;5069449;28;20044;-60
2023/06/03 08:08:35;;;;;;;4.13;0.80;;;;;;;;;;5051412;28;20048;-60
2023/06/03 08:11:01;;;;;;;3.10;1.10;;;;;;;;;;5068315;28;20044;-60
2023/06/03 08:13:27;;;;;;;2.90;0.97;;;;;;;;;;5068949;28;20090;-60
2023/06/03 08:15:53;;;;;;;3.10;0.90;;;;;;;;;;5068764;28;20051;-60
2023/06/03 08:18:42;;;;;;;4.03;0.73;;;;;;;;;;5069056;28;20053;-60
2023/06/03 08:21:08;;;;;;;2.77;0.87;;;;;;;;;;5069042;28;20413;-60
2023/06/03 08:23:34;;;;;;;4.90;0.70;;;;;;;;;;5068609;28;20123;-60
2023/06/03 08:26:00;;;;;;;3.93;0.77;;;;;;;;;;5068138;28;20049;-60
2023/06/03 08:28:27;;;;;;;2.03;1.00;;;;;;;;;;5068978;28;20048;-60
2023/06/03 08:30:54;;;;;;;2.77;0.60;;;;;;;;;;5068550;28;20044;-60
2023/06/03 08:33:20;;;;;;;5.47;1.47;;;;;;;;;;5068269;28;20533;-60
2023/06/03 08:35:47;;;;;;;9.40;1.30;;;;;;;;;;5068508;28;20119;-60
2023/06/03 08:38:16;;;;;;;2.03;0.70;;;;;;;;;;5068079;28;20127;-60
2023/06/03 08:40:46;;;;;;;2.17;0.70;;;;;;;;;;5068459;28;20056;-60
2023/06/03 08:43:13;;;;;;;2.80;0.60;;;;;;;;;;5068430;28;20055;-60
2023/06/03 08:45:45;;;;;;;1.40;0.40;;;;;;;;;;5068254;28;20048;-60
2023/06/03 08:48:11;;;;;;;1.90;0.60;;;;;;;;;;5068249;28;20055;-61
2023/06/03 08:50:37;;;;;;;2.87;0.70;;;;;;;;;;5067787;28;20390;-60
2023/06/03 08:53:08;;;;;;;4.50;0.70;;;;;;;;;;5068336;28;20084;-60
2023/06/03 08:55:34;;;;;;;2.37;0.70;;;;;;;;;;5068310;28;20048;-61
2023/06/03 08:58:15;;;;;;;1.50;0.60;;;;;;;;;;5068000;28;20406;-61
2023/06/03 09:00:43;;;;;;;2.60;0.90;;;;;;;;;;5068161;28;20667;-61
2023/06/03 09:03:11;;;;;;;3.03;0.80;;;;;;;;;;5067948;28;20053;-60
2023/06/03 09:05:38;;;;;;;4.03;0.80;;;;;;;;;;5067648;28;20052;-60
2023/06/03 09:08:05;;;;;;;1.13;0.60;;;;;;;;;;5068069;28;20051;-61
2023/06/03 09:10:32;;;;;;;3.33;1.00;;;;;;;;;;5068207;28;20048;-61
2023/06/03 09:12:58;;;;;;;2.20;0.53;;;;;;;;;;5067950;28;20475;-61
2023/06/03 09:15:25;;;;;;;3.27;0.77;;;;;;;;;;5067916;28;20452;-60
2023/06/03 09:17:51;;;;;;;2.03;0.90;;;;;;;;;;5067891;28;20509;-60
2023/06/03 09:20:17;;;;;;;3.70;0.80;;;;;;;;;;5067533;28;20502;-61
2023/06/03 09:22:45;;;;;;;3.83;0.80;;;;;;;;;;5067730;28;20045;-61
2023/06/03 09:25:11;;;;;;;3.03;0.70;;;;;;;;;;5068226;28;20040;-61
2023/06/03 09:27:37;;;;;;;6.67;0.80;;;;;;;;;;5067703;28;20052;-61
2023/06/03 09:30:04;;;;;;;5.50;0.77;;;;;;;;;;5067392;28;20045;-61
2023/06/03 09:32:37;;;;;;;1.37;0.60;;;;;;;;;;5067560;28;20498;-60
2023/06/03 09:35:07;;;;;;;2.37;0.60;;;;;;;;;;5067622;28;20537;-60
2023/06/03 09:37:33;;;;;;;4.07;0.60;;;;;;;;;;5067820;28;20075;-60
2023/06/03 09:40:00;;;;;;;2.43;0.70;;;;;;;;;;5067035;28;20041;-60
2023/06/03 09:42:41;;;;;;;2.83;0.60;;;;;;;;;;5067611;28;20552;-60
2023/06/03 09:45:08;;;;;;;3.23;0.60;;;;;;;;;;5067510;28;20048;-60
2023/06/03 09:47:39;;;;;;;4.63;0.90;;;;;;;;;;5067074;28;20078;-60
2023/06/03 09:50:11;;;;;;;2.27;0.80;;;;;;;;;;5067255;28;20566;-60
2023/06/03 09:52:37;;;;;;;3.10;0.70;;;;;;;;;;5067514;28;20048;-60
2023/06/03 09:55:05;;;;;;;3.50;0.80;;;;;;;;;;5067681;28;20286;-60
2023/06/03 09:57:31;;;;;;;3.03;0.90;;;;;;;;;;5067545;28;20127;-60
2023/06/03 10:00:12;;;;;;;4.53;0.93;;;;;;;;;;5067288;28;20128;-61
2023/06/03 10:02:40;;;;;;;4.77;0.87;;;;;;;;;;5067039;28;20494;-60
2023/06/03 10:05:25;;;;;;;3.27;0.80;;;;;;;;;;5067595;28;20044;-61
2023/06/03 10:07:51;;;;;;;5.93;0.67;;;;;;;;;;5067579;28;20040;-60
2023/06/03 10:10:17;;;;;;;3.30;0.60;;;;;;;;;;5067404;28;20049;-61
2023/06/03 10:12:45;;;;;;;2.97;0.60;;;;;;;;;;5066735;28;20045;-61
2023/06/03 10:15:11;;;;;;;2.72;1.20;;;;;;;;;;5050638;28;20052;-60
2023/06/03 10:17:46;;;;;;;2.53;0.80;;;;;;;;;;5071566;28;20462;-61
2023/06/03 10:20:29;;;;;;;2.45;1.08;;;;;;;;;;5070747;28;20444;-61
2023/06/03 10:22:56;;;;;;;2.83;0.85;;;;;;;;;;5071055;28;20413;-60
2023/06/03 10:25:22;;;;;;;2.58;0.75;;;;;;;;;;5070884;28;20049;-60
2023/06/03 10:27:48;;;;;;;2.47;0.75;;;;;;;;;;5071046;28;20466;-61
2023/06/03 10:30:15;;;;;;;3.47;0.80;;;;;;;;;;5071048;28;20131;-60
2023/06/03 10:32:43;;;;;;;2.40;1.10;;;;;;;;;;5070297;28;20552;-61
2023/06/03 10:35:10;;;;;;;4.40;1.00;;;;;;;;;;5070853;28;20054;-61
2023/06/03 10:37:37;;;;;;;2.45;0.70;;;;;;;;;;5071003;28;20049;-61
2023/06/03 10:40:04;;;;;;;1.63;0.82;;;;;;;;;;5070434;28;20131;-61
2023/06/03 10:42:32;;;;;;;3.33;1.00;;;;;;;;;;5070568;28;20424;-61
2023/06/03 10:44:59;;;;;;;4.35;1.73;;;;;;;;;;5070300;28;20044;-61
2023/06/03 10:47:26;;;;;;;7.63;1.52;;;;;;;;;;5070723;28;20044;-61
2023/06/03 10:50:10;;;;;;;5.10;0.88;;;;;;;;;;5070438;28;20046;-61
2023/06/03 10:53:09;;;;;;;2.35;0.77;;;;;;;;;;5070528;28;20044;-61
2023/06/03 10:55:39;;;;;;;1.77;0.90;;;;;;;;;;5047023;28;20063;-61
2023/06/03 10:58:25;;;;;;;1.80;0.80;;;;;;;;;;5070205;28;20067;-61
2023/06/03 11:00:51;;;;;;;4.85;0.77;;;;;;;;;;5070481;28;20051;-60
2023/06/03 11:03:18;;;;;;;1.88;0.73;;;;;;;;;;5070560;28;20418;-60
2023/06/03 11:05:47;;;;;;;5.38;0.82;;;;;;;;;;5070048;28;20471;-61
2023/06/03 11:08:13;;;;;;;2.97;0.95;;;;;;;;;;5069671;28;20037;-61
2023/06/03 11:10:40;;;;;;;2.63;0.90;;;;;;;;;;5070376;28;20465;-61
2023/06/03 11:13:06;;;;;;;2.28;0.85;;;;;;;;;;5070118;28;20044;-61
2023/06/03 11:15:51;;;;;;;3.05;1.10;;;;;;;;;;5070079;28;20244;-61
2023/06/03 11:18:17;;;;;;;1.90;0.70;;;;;;;;;;5069720;28;20044;-61
2023/06/03 11:20:43;;;;;;;2.28;0.95;;;;;;;;;;5070121;28;20048;-61
2023/06/03 11:23:09;;;;;;;1.75;0.88;;;;;;;;;;5070038;28;20055;-61
2023/06/03 11:25:38;;;;;;;1.80;0.80;;;;;;;;;;5069579;28;20048;-61
2023/06/03 11:28:22;;;;;;;4.10;0.90;;;;;;;;;;5069400;28;20131;-61
2023/06/03 11:30:54;;;;;;;3.58;1.10;;;;;;;;;;5069859;28;20055;-61
2023/06/03 11:33:20;;;;;;;2.20;0.77;;;;;;;;;;5069761;28;20086;-61
2023/06/03 11:35:46;;;;;;;2.00;0.85;;;;;;;;;;5069563;28;20131;-61
2023/06/03 11:38:12;;;;;;;1.15;0.70;;;;;;;;;;5069240;28;20048;-61
2023/06/03 11:40:44;;;;;;;2.03;0.90;;;;;;;;;;5069761;28;20036;-61
2023/06/03 11:43:10;;;;;;;1.92;1.00;;;;;;;;;;5069730;28;20117;-61
2023/06/03 11:45:38;;;;;;;1.98;0.80;;;;;;;;;;5069031;28;20612;-61
2023/06/03 11:48:07;;;;;;;2.22;0.88;;;;;;;;;;5069322;28;20044;-61
2023/06/03 11:50:50;;;;;;;2.72;1.05;;;;;;;;;;5069359;28;20052;-61
2023/06/03 11:53:28;;;;;;;1.95;0.70;;;;;;;;;;5069196;28;20490;-61
2023/06/03 11:56:00;;;;;;;2.38;0.80;;;;;;;;;;5068789;28;20056;-61
2023/06/03 11:58:26;;;;;;;3.90;1.10;;;;;;;;;;5069556;28;20084;-61
2023/06/03 12:01:05;;;;;;;3.65;1.10;;;;;;;;;;5069203;28;20109;-61
2023/06/03 12:03:32;;;;;;;2.03;0.88;;;;;;;;;;5051689;28;20616;-61
2023/06/03 12:06:01;;;;;;;5.55;0.95;;;;;;;;;;5068863;28;20048;-61
2023/06/03 12:08:41;;;;;;;3.75;1.10;;;;;;;;;;5069131;28;20049;-61
2023/06/03 12:11:07;;;;;;;2.28;1.00;;;;;;;;;;5068806;28;20549;-61
2023/06/03 12:13:42;;;;;;;4.30;1.00;;;;;;;;;;5069234;28;20080;-61
2023/06/03 12:16:08;;;;;;;4.45;0.90;;;;;;;;;;5069074;28;20041;-61
2023/06/03 12:18:35;;;;;;;5.60;1.02;;;;;;;;;;5069065;28;20346;-61
2023/06/03 12:21:20;;;;;;;3.55;0.90;;;;;;;;;;5068928;28;20048;-61
2023/06/03 12:23:46;;;;;;;3.58;1.02;;;;;;;;;;5068653;28;20048;-61
2023/06/03 12:26:12;;;;;;;3.33;0.88;;;;;;;;;;5068753;28;20131;-61
2023/06/03 12:28:38;;;;;;;2.10;0.93;;;;;;;;;;5068214;28;20059;-61
2023/06/03 12:31:11;;;;;;;3.67;1.08;;;;;;;;;;5068595;28;20098;-61
2023/06/03 12:33:40;;;;;;;5.35;1.00;;;;;;;;;;5068354;28;20053;-61
2023/06/03 12:36:07;;;;;;;6.18;1.23;;;;;;;;;;5068527;28;20091;-61
2023/06/03 12:38:33;;;;;;;2.38;0.73;;;;;;;;;;5067953;28;20037;-61
2023/06/03 12:41:18;;;;;;;2.22;1.02;;;;;;;;;;5068061;28;20079;-61
2023/06/03 12:43:45;;;;;;;1.88;0.70;;;;;;;;;;5068412;28;20048;-61
2023/06/03 12:46:18;;;;;;;4.18;1.08;;;;;;;;;;5050505;28;20040;-61
2023/06/03 12:48:47;;;;;;;1.95;0.90;;;;;;;;;;5067944;28;20132;-61
2023/06/03 12:51:25;;;;;;;3.72;0.82;;;;;;;;;;5068355;28;20051;-61
2023/06/03 12:53:55;;;;;;;4.05;0.98;;;;;;;;;;5067961;28;20139;-61
2023/06/03 12:56:25;;;;;;;2.33;0.90;;;;;;;;;;5067849;28;20049;-61
2023/06/03 12:58:52;;;;;;;1.83;0.70;;;;;;;;;;5067996;28;20091;-61
2023/06/03 13:01:18;;;;;;;2.08;0.80;;;;;;;;;;5068340;28;20123;-61
2023/06/03 13:03:44;;;;;;;2.53;0.60;;;;;;;;;;5068316;28;20485;-61
2023/06/03 13:06:10;;;;;;;4.70;0.80;;;;;;;;;;5068417;28;20055;-61
2023/06/03 13:08:37;;;;;;;2.70;0.77;;;;;;;;;;5067746;28;20087;-61
2023/06/03 13:11:03;;;;;;;2.58;0.90;;;;;;;;;;5067898;28;20485;-61
2023/06/03 13:13:30;;;;;;;2.00;0.70;;;;;;;;;;5067994;28;20367;-61
2023/06/03 13:15:57;;;;;;;2.55;0.65;;;;;;;;;;5067708;28;20501;-61
2023/06/03 13:18:24;;;;;;;2.00;1.00;;;;;;;;;;5067927;28;20087;-61
2023/06/03 13:20:50;;;;;;;1.67;0.88;;;;;;;;;;5067487;28;20044;-61
2023/06/03 13:23:16;;;;;;;2.50;0.90;;;;;;;;;;5067709;28;20418;-61
2023/06/03 13:25:42;;;;;;;2.17;1.00;;;;;;;;;;5067697;28;20040;-61
2023/06/03 13:28:08;;;;;;;2.40;0.90;;;;;;;;;;5068257;28;20106;-61
2023/06/03 13:30:34;;;;;;;7.35;1.10;;;;;;;;;;5067716;28;20049;-61
2023/06/03 13:33:01;;;;;;;2.30;1.00;;;;;;;;;;5067340;28;20060;-61
2023/06/03 13:35:27;;;;;;;2.97;0.90;;;;;;;;;;5067232;28;20047;-61
2023/06/03 13:37:53;;;;;;;3.47;0.90;;;;;;;;;;5067681;28;20058;-61
2023/06/03 13:40:19;;;;;;;4.97;1.73;;;;;;;;;;5067665;28;20051;-61
2023/06/03 13:42:46;;;;;;;2.05;0.75;;;;;;;;;;5049510;28;20517;-61
2023/06/03 13:45:12;;;;;;;6.22;0.93;;;;;;;;;;5067665;28;20044;-61
2023/06/03 13:47:38;;;;;;;3.03;0.85;;;;;;;;;;5067607;28;20044;-61
2023/06/03 13:50:05;;;;;;;2.03;1.10;;;;;;;;;;5069693;28;20052;-61
2023/06/03 13:52:31;;;;;;;4.57;0.82;;;;;;;;;;5071654;28;20048;-61
2023/06/03 13:54:57;;;;;;;2.42;1.00;;;;;;;;;;5071852;28;20040;-61
2023/06/03 13:57:24;;;;;;;4.03;0.90;;;;;;;;;;5071349;28;20473;-61
2023/06/03 13:59:50;;;;;;;1.48;0.60;;;;;;;;;;5071140;28;20049;-61
2023/06/03 14:02:16;;;;;;;4.85;0.93;;;;;;;;;;5071662;28;20059;-61
2023/06/03 14:04:42;;;;;;;4.88;0.90;;;;;;;;;;5071579;28;20048;-61
2023/06/03 14:07:09;;;;;;;3.85;0.82;;;;;;;;;;5071100;28;20558;-61
2023/06/03 14:09:36;;;;;;;2.63;1.30;;;;;;;;;;5071315;28;20446;-61
2023/06/03 14:12:02;;;;;;;2.78;1.00;;;;;;;;;;5071489;28;20096;-62
2023/06/03 14:14:29;;;;;;;2.60;0.80;;;;;;;;;;5070648;28;20045;-61
2023/06/03 14:16:55;;;;;;;3.38;0.93;;;;;;;;;;5071194;28;20044;-61
2023/06/03 14:19:21;;;;;;;1.90;0.80;;;;;;;;;;5071187;28;20148;-61
2023/06/03 14:21:47;;;;;;;2.55;0.90;;;;;;;;;;5070890;28;20056;-61
2023/06/03 14:24:13;;;;;;;3.08;0.80;;;;;;;;;;5071058;28;20054;-61
2023/06/03 14:26:39;;;;;;;1.83;0.88;;;;;;;;;;5070840;28;20052;-61
2023/06/03 14:29:10;;;;;;;3.95;1.00;;;;;;;;;;5070864;28;20557;-61
2023/06/03 14:31:36;;;;;;;2.65;0.90;;;;;;;;;;5070990;28;20051;-61
2023/06/03 14:34:04;;;;;;;4.20;0.93;;;;;;;;;;5070777;28;20399;-61
2023/06/03 14:36:30;;;;;;;2.20;0.82;;;;;;;;;;5070288;28;20044;-61
2023/06/03 14:38:56;;;;;;;4.60;1.10;;;;;;;;;;5070780;28;20078;-61
2023/06/03 14:41:22;;;;;;;2.28;0.90;;;;;;;;;;5071030;28;20047;-61
2023/06/03 14:43:48;;;;;;;3.17;0.90;;;;;;;;;;5070413;28;20090;-61
2023/06/03 14:46:14;;;;;;;3.25;1.05;;;;;;;;;;5070188;28;20094;-61
2023/06/03 14:48:40;;;;;;;2.60;0.75;;;;;;;;;;5070383;28;20075;-61